Time;durP1;ratioP1;P1;durP2;ratioP2;P2;SDS_P1;SDS_P2;PMS_P1;PMS_P2;Temp;Humidity;BMP_temperature;BMP_pressure;BME280_temperature;BME280_humidity;BME280_pressure;Samples;Min_cycle;Max_cycle;Signal;HPM_P1;HPM_P2
2023/04/25 00:01:12;;;;;;;1.02;0.90;;;23.00;47.10;;;;;;5013212;28;20490;-58
2023/04/25 00:03:40;;;;;;;0.50;0.50;;;23.00;47.10;;;;;;5014025;28;20403;-58
2023/04/25 00:06:08;;;;;;;1.83;0.80;;;23.00;47.10;;;;;;5013325;28;20132;-58
2023/04/25 00:08:35;;;;;;;0.77;0.77;;;22.90;47.10;;;;;;5013299;28;20074;-58
2023/04/25 00:11:03;;;;;;;0.70;0.70;;;23.00;47.10;;;;;;5013265;28;20136;-58
2023/04/25 00:13:30;;;;;;;0.70;0.70;;;23.00;47.10;;;;;;5013757;28;20077;-58
2023/04/25 00:15:57;;;;;;;1.25;0.80;;;22.90;47.10;;;;;;5013214;28;20141;-58
2023/04/25 00:18:25;;;;;;;0.57;0.52;;;22.90;47.00;;;;;;5013634;28;20518;-58
2023/04/25 00:20:52;;;;;;;0.80;0.80;;;22.90;47.00;;;;;;5013655;28;20136;-58
2023/04/25 00:23:19;;;;;;;0.70;0.70;;;22.90;47.10;;;;;;5012918;28;20172;-58
2023/04/25 00:25:48;;;;;;;0.60;0.60;;;22.90;47.10;;;;;;5013514;28;20050;-58
2023/04/25 00:28:16;;;;;;;2.05;0.85;;;23.00;47.70;;;;;;5013317;28;20127;-58
2023/04/25 00:30:43;;;;;;;0.60;0.60;;;22.90;47.10;;;;;;5014030;28;20050;-58
2023/04/25 00:33:11;;;;;;;0.63;0.63;;;22.90;47.20;;;;;;5012798;28;20521;-58
2023/04/25 00:35:38;;;;;;;0.50;0.50;;;22.90;47.20;;;;;;5012774;28;20096;-58
2023/04/25 00:38:05;;;;;;;0.50;0.43;;;22.90;47.20;;;;;;5014106;28;20084;-58
2023/04/25 00:40:32;;;;;;;0.47;0.43;;;22.90;47.20;;;;;;5013216;28;20133;-58
2023/04/25 00:43:00;;;;;;;0.93;0.60;;;22.90;47.20;;;;;;5012490;28;20092;-58
2023/04/25 00:45:30;;;;;;;1.38;0.75;;;22.90;47.20;;;;;;4994166;28;20050;-58
2023/04/25 00:47:57;;;;;;;1.45;0.95;;;22.90;47.20;;;;;;4993929;28;20046;-58
2023/04/25 00:50:25;;;;;;;0.73;0.73;;;22.90;47.20;;;;;;4993017;28;20054;-58
2023/04/25 00:52:52;;;;;;;0.95;0.68;;;22.90;47.20;;;;;;4994055;28;20561;-59
2023/04/25 00:55:19;;;;;;;0.52;0.52;;;22.90;47.20;;;;;;4992697;28;20084;-59
2023/04/25 00:57:47;;;;;;;0.95;0.60;;;22.80;47.10;;;;;;4992775;28;20050;-59
2023/04/25 01:00:14;;;;;;;0.77;0.50;;;22.90;47.20;;;;;;4992867;28;20050;-59
2023/04/25 01:02:43;;;;;;;1.10;0.88;;;22.90;47.10;;;;;;4993290;28;20491;-59
2023/04/25 01:05:11;;;;;;;0.50;0.50;;;22.90;47.00;;;;;;4994029;28;20050;-59
2023/04/25 01:07:39;;;;;;;0.30;0.30;;;22.90;47.00;;;;;;4992670;28;20189;-59
2023/04/25 01:10:07;;;;;;;1.08;0.75;;;23.00;47.00;;;;;;4992845;28;20100;-58
2023/04/25 01:12:34;;;;;;;1.20;0.82;;;22.90;46.90;;;;;;4993676;28;20046;-59
2023/04/25 01:15:02;;;;;;;0.73;0.63;;;22.90;46.90;;;;;;4993658;28;20042;-59
2023/04/25 01:17:29;;;;;;;0.40;0.40;;;22.90;46.90;;;;;;4991094;28;20051;-59
2023/04/25 01:19:56;;;;;;;0.40;0.40;;;22.90;46.90;;;;;;4993524;28;20097;-59
2023/04/25 01:22:24;;;;;;;0.47;0.47;;;22.90;46.90;;;;;;4992619;28;20110;-59
2023/04/25 01:24:51;;;;;;;0.40;0.40;;;22.90;46.90;;;;;;4993150;28;20141;-59
2023/04/25 01:27:18;;;;;;;0.60;0.57;;;22.90;46.90;;;;;;4993923;28;20458;-59
2023/04/25 01:29:46;;;;;;;0.73;0.73;;;22.90;46.80;;;;;;4993797;28;20141;-59
2023/04/25 01:32:14;;;;;;;0.60;0.60;;;22.90;46.80;;;;;;4992098;28;20110;-59
2023/04/25 01:34:41;;;;;;;0.80;0.70;;;22.90;46.80;;;;;;4993514;28;20050;-59
2023/04/25 01:37:08;;;;;;;1.10;1.00;;;22.90;46.80;;;;;;4993026;28;20109;-59
2023/04/25 01:39:36;;;;;;;0.40;0.40;;;22.90;46.80;;;;;;4992710;28;20109;-59
2023/04/25 01:42:03;;;;;;;0.52;0.52;;;22.90;46.80;;;;;;4992833;28;20046;-59
2023/04/25 01:44:30;;;;;;;0.70;0.70;;;22.90;46.80;;;;;;4992505;28;20498;-59
2023/04/25 01:46:57;;;;;;;0.65;0.55;;;22.90;46.80;;;;;;4992420;28;20100;-59
2023/04/25 01:49:24;;;;;;;0.80;0.75;;;22.90;46.80;;;;;;4992508;28;20046;-59
2023/04/25 01:51:52;;;;;;;0.50;0.50;;;22.90;46.90;;;;;;4992682;28;20050;-59
2023/04/25 01:54:20;;;;;;;0.88;0.50;;;22.90;46.80;;;;;;4992825;28;20138;-58
2023/04/25 01:56:51;;;;;;;0.40;0.40;;;22.80;47.30;;;;;;4991900;28;20495;-58
2023/04/25 01:59:20;;;;;;;0.60;0.60;;;22.90;46.80;;;;;;4992724;28;20554;-59
2023/04/25 02:01:47;;;;;;;0.32;0.32;;;22.80;46.80;;;;;;4991757;28;20078;-59
2023/04/25 02:04:14;;;;;;;0.90;0.40;;;22.80;46.80;;;;;;4996218;28;20058;-59
2023/04/25 02:06:42;;;;;;;0.22;0.20;;;22.80;46.80;;;;;;4996180;28;20078;-59
2023/04/25 02:09:09;;;;;;;0.47;0.47;;;22.80;46.80;;;;;;4996807;28;20046;-59
2023/04/25 02:11:36;;;;;;;0.35;0.35;;;22.80;46.80;;;;;;4997242;28;20096;-59
2023/04/25 02:14:04;;;;;;;0.90;0.43;;;22.90;46.80;;;;;;4996637;28;20454;-59
2023/04/25 02:16:31;;;;;;;1.05;0.75;;;22.90;46.80;;;;;;4995289;28;20178;-58
2023/04/25 02:18:58;;;;;;;0.68;0.47;;;22.90;46.80;;;;;;4994670;28;20062;-59
2023/04/25 02:21:26;;;;;;;1.20;0.60;;;22.80;46.70;;;;;;4999679;28;20562;-59
2023/04/25 02:23:53;;;;;;;0.30;0.30;;;22.80;46.80;;;;;;5016582;28;20136;-58
2023/04/25 02:26:23;;;;;;;1.67;1.08;;;22.80;46.80;;;;;;5016356;28;20125;-59
2023/04/25 02:28:51;;;;;;;0.52;0.43;;;22.80;46.80;;;;;;5016433;28;20406;-59
2023/04/25 02:31:19;;;;;;;0.60;0.60;;;22.80;46.90;;;;;;4998963;28;20058;-59
2023/04/25 02:33:46;;;;;;;0.47;0.47;;;22.80;46.90;;;;;;4995979;28;20053;-59
2023/04/25 02:36:13;;;;;;;0.57;0.30;;;22.80;46.90;;;;;;4994958;28;20533;-59
2023/04/25 02:38:41;;;;;;;0.70;0.40;;;22.80;46.90;;;;;;4995797;28;20089;-59
2023/04/25 02:41:08;;;;;;;0.57;0.45;;;22.80;46.90;;;;;;4995927;28;20582;-59
2023/04/25 02:43:35;;;;;;;0.80;0.68;;;22.80;46.90;;;;;;4995896;28;20491;-58
2023/04/25 02:46:02;;;;;;;1.10;0.60;;;22.80;46.90;;;;;;4994939;28;20046;-59
2023/04/25 02:48:29;;;;;;;0.40;0.38;;;22.80;46.90;;;;;;4995141;28;20089;-59
2023/04/25 02:50:56;;;;;;;0.60;0.60;;;22.80;46.90;;;;;;4995480;28;20046;-59
2023/04/25 02:53:23;;;;;;;0.45;0.38;;;22.80;46.90;;;;;;4995514;28;20050;-59
2023/04/25 02:55:52;;;;;;;1.15;0.45;;;22.80;46.90;;;;;;4995115;28;20137;-59
2023/04/25 02:58:19;;;;;;;0.45;0.45;;;22.80;46.90;;;;;;4995241;28;20047;-59
2023/04/25 03:00:46;;;;;;;0.52;0.50;;;22.80;46.80;;;;;;4994967;28;20459;-59
2023/04/25 03:03:14;;;;;;;0.40;0.40;;;22.90;46.70;;;;;;4995023;28;20502;-58
2023/04/25 03:05:43;;;;;;;0.37;0.37;;;22.90;46.70;;;;;;4995249;28;20046;-58
2023/04/25 03:08:11;;;;;;;1.63;0.40;;;22.90;46.60;;;;;;4995673;28;20618;-60
2023/04/25 03:10:38;;;;;;;0.43;0.38;;;22.90;46.60;;;;;;4999335;28;20515;-59
2023/04/25 03:13:05;;;;;;;0.55;0.45;;;22.80;46.50;;;;;;4994502;28;20086;-59
2023/04/25 03:15:33;;;;;;;0.85;0.40;;;22.80;46.50;;;;;;4994232;28;20542;-59
2023/04/25 03:18:00;;;;;;;0.35;0.30;;;22.80;46.50;;;;;;4999262;28;20046;-59
2023/04/25 03:20:28;;;;;;;0.32;0.32;;;22.80;46.50;;;;;;5014782;28;20053;-59
2023/04/25 03:22:55;;;;;;;0.40;0.40;;;22.80;46.50;;;;;;5012941;28;20096;-58
2023/04/25 03:25:23;;;;;;;0.30;0.30;;;22.90;46.50;;;;;;5014173;28;20045;-59
2023/04/25 03:27:50;;;;;;;0.88;0.40;;;22.80;46.50;;;;;;5013806;28;20045;-59
2023/04/25 03:30:17;;;;;;;0.50;0.50;;;22.80;46.50;;;;;;5013875;28;20472;-59
2023/04/25 03:32:44;;;;;;;0.32;0.30;;;22.80;46.50;;;;;;5012787;28;20077;-59
2023/04/25 03:35:11;;;;;;;0.28;0.28;;;22.80;46.50;;;;;;4996887;28;20055;-59
2023/04/25 03:37:40;;;;;;;0.30;0.30;;;22.80;46.50;;;;;;4994683;28;20577;-59
2023/04/25 03:40:08;;;;;;;0.75;0.40;;;22.80;46.50;;;;;;5006559;28;20100;-58
2023/04/25 03:42:35;;;;;;;0.30;0.30;;;22.80;46.50;;;;;;4994351;28;20462;-59
2023/04/25 03:45:03;;;;;;;0.35;0.35;;;22.80;46.50;;;;;;4999796;28;20097;-59
2023/04/25 03:47:30;;;;;;;0.38;0.30;;;22.80;46.50;;;;;;5012786;28;20056;-59
2023/04/25 03:49:57;;;;;;;0.45;0.30;;;22.80;46.50;;;;;;4993426;28;20059;-60
2023/04/25 03:52:24;;;;;;;0.30;0.30;;;22.80;46.50;;;;;;4992307;28;20587;-59
2023/04/25 03:54:52;;;;;;;0.25;0.25;;;22.80;46.50;;;;;;4993487;28;20531;-59
2023/04/25 03:57:19;;;;;;;0.30;0.30;;;22.80;46.50;;;;;;4993672;28;20235;-60
2023/04/25 03:59:46;;;;;;;0.55;0.45;;;22.80;46.50;;;;;;4993505;28;20085;-59
2023/04/25 04:02:13;;;;;;;0.57;0.45;;;22.70;47.00;;;;;;4993859;28;20140;-58
2023/04/25 04:04:40;;;;;;;0.40;0.40;;;22.80;46.50;;;;;;5009509;28;20405;-59
2023/04/25 04:07:10;;;;;;;0.47;0.43;;;22.80;46.50;;;;;;4993018;28;20073;-59
2023/04/25 04:09:37;;;;;;;0.50;0.40;;;22.80;46.50;;;;;;4994441;28;20129;-59
2023/04/25 04:12:04;;;;;;;0.20;0.20;;;22.80;46.50;;;;;;4993116;28;20058;-59
2023/04/25 04:14:31;;;;;;;0.30;0.30;;;22.80;46.50;;;;;;4993017;28;20088;-58
2023/04/25 04:16:58;;;;;;;0.40;0.40;;;22.80;46.40;;;;;;5009426;28;20474;-59
2023/04/25 04:19:26;;;;;;;0.40;0.40;;;22.70;46.40;;;;;;4993524;28;20086;-59
2023/04/25 04:21:53;;;;;;;0.45;0.40;;;22.80;46.40;;;;;;5002399;28;20042;-59
2023/04/25 04:24:20;;;;;;;0.68;0.57;;;22.70;46.40;;;;;;5009090;28;20060;-59
2023/04/25 04:26:47;;;;;;;1.23;0.40;;;22.70;46.50;;;;;;5010358;28;20046;-59
2023/04/25 04:29:20;;;;;;;1.20;0.45;;;22.80;46.60;;;;;;5012948;28;20092;-58
2023/04/25 04:31:49;;;;;;;0.30;0.28;;;22.70;46.50;;;;;;5009675;28;20069;-58
2023/04/25 04:34:18;;;;;;;0.70;0.28;;;22.70;46.50;;;;;;5012359;28;20046;-59
2023/04/25 04:36:46;;;;;;;0.30;0.30;;;22.70;46.50;;;;;;5007228;28;20100;-58
2023/04/25 04:39:13;;;;;;;0.50;0.50;;;22.80;46.50;;;;;;5007681;28;20398;-58
2023/04/25 04:41:41;;;;;;;0.30;0.30;;;22.80;46.50;;;;;;5006032;28;20139;-59
2023/04/25 04:44:08;;;;;;;0.45;0.45;;;22.80;46.50;;;;;;5007610;28;20113;-59
2023/04/25 04:46:41;;;;;;;0.32;0.32;;;22.80;46.40;;;;;;5012598;28;20081;-59
2023/04/25 04:49:10;;;;;;;0.40;0.40;;;22.80;46.30;;;;;;5011417;28;20489;-58
2023/04/25 04:51:38;;;;;;;0.30;0.30;;;22.90;46.30;;;;;;5011475;28;20553;-58
2023/04/25 04:54:05;;;;;;;0.40;0.40;;;22.90;46.20;;;;;;5011326;28;20458;-58
2023/04/25 04:56:32;;;;;;;0.47;0.40;;;22.90;46.20;;;;;;5009787;28;20124;-59
2023/04/25 04:58:59;;;;;;;0.30;0.30;;;22.90;46.10;;;;;;5011476;28;20428;-58
2023/04/25 05:01:27;;;;;;;0.60;0.22;;;22.90;46.10;;;;;;5010601;28;20041;-58
2023/04/25 05:03:59;;;;;;;0.45;0.40;;;22.90;46.00;;;;;;5009739;28;20116;-58
2023/04/25 05:06:31;;;;;;;0.30;0.30;;;22.90;46.00;;;;;;5011224;28;20081;-58
2023/04/25 05:08:58;;;;;;;0.52;0.30;;;23.00;46.00;;;;;;5011194;28;20046;-58
2023/04/25 05:11:26;;;;;;;0.50;0.40;;;23.00;45.90;;;;;;5010357;28;20068;-58
2023/04/25 05:13:53;;;;;;;0.40;0.40;;;23.00;45.90;;;;;;5007754;28;20129;-58
2023/04/25 05:16:20;;;;;;;0.55;0.38;;;23.00;45.80;;;;;;5010134;28;20573;-58
2023/04/25 05:18:48;;;;;;;0.30;0.30;;;23.00;45.80;;;;;;5011183;28;20077;-58
2023/04/25 05:21:16;;;;;;;0.30;0.30;;;23.00;45.70;;;;;;5001937;28;20066;-58
2023/04/25 05:23:43;;;;;;;1.42;0.30;;;23.00;45.70;;;;;;5008317;28;20049;-59
2023/04/25 05:26:13;;;;;;;0.50;0.50;;;23.00;45.70;;;;;;4999632;28;20054;-58
2023/04/25 05:28:42;;;;;;;0.57;0.57;;;23.00;45.70;;;;;;5002499;28;20506;-60
2023/04/25 05:31:12;;;;;;;1.10;0.20;;;23.00;45.70;;;;;;5003721;28;20060;-57
2023/04/25 05:33:39;;;;;;;0.50;0.20;;;23.10;45.90;;;;;;5002086;28;20395;-57
2023/04/25 05:36:07;;;;;;;0.43;0.43;;;23.10;46.10;;;;;;5001479;28;20042;-57
2023/04/25 05:38:34;;;;;;;0.52;0.35;;;23.10;46.20;;;;;;5006841;28;20484;-57
2023/04/25 05:41:02;;;;;;;0.57;0.40;;;23.10;46.30;;;;;;5008803;28;20041;-56
2023/04/25 05:43:29;;;;;;;0.40;0.38;;;23.20;46.30;;;;;;5002467;28;20104;-58
2023/04/25 05:45:56;;;;;;;0.80;0.77;;;23.20;46.10;;;;;;5002791;28;20054;-58
2023/04/25 05:48:24;;;;;;;0.30;0.30;;;23.30;45.90;;;;;;5003416;28;20053;-58
2023/04/25 05:50:51;;;;;;;0.30;0.30;;;23.30;45.70;;;;;;5002248;28;20128;-57
2023/04/25 05:53:20;;;;;;;0.68;0.28;;;23.30;45.60;;;;;;5007429;28;20116;-57
2023/04/25 05:55:47;;;;;;;0.63;0.50;;;23.40;45.50;;;;;;5007086;28;20046;-58
2023/04/25 05:58:15;;;;;;;0.50;0.50;;;23.40;45.50;;;;;;5003225;28;20077;-57
2023/04/25 06:00:42;;;;;;;0.50;0.50;;;23.50;45.60;;;;;;5000708;28;20104;-58
2023/04/25 06:03:09;;;;;;;0.47;0.40;;;23.50;45.60;;;;;;4999945;28;20081;-59
2023/04/25 06:05:37;;;;;;;11.40;0.52;;;23.60;45.70;;;;;;5004000;28;20046;-58
2023/04/25 06:08:04;;;;;;;0.43;0.43;;;23.70;45.70;;;;;;5006182;28;20042;-60
2023/04/25 06:10:31;;;;;;;0.93;0.52;;;23.70;45.70;;;;;;5008505;28;20053;-59
2023/04/25 06:12:59;;;;;;;0.70;0.70;;;23.70;45.70;;;;;;5004741;28;20604;-59
2023/04/25 06:15:26;;;;;;;4.78;0.77;;;23.80;45.70;;;;;;5006158;28;20129;-58
2023/04/25 06:17:55;;;;;;;0.50;0.50;;;23.80;45.60;;;;;;5004958;28;20049;-59
2023/04/25 06:20:24;;;;;;;2.40;0.60;;;23.90;45.50;;;;;;5005467;28;20054;-62
2023/04/25 06:22:52;;;;;;;1.10;0.70;;;23.90;45.50;;;;;;5003732;28;20113;-65
2023/04/25 06:25:20;;;;;;;2.90;0.70;;;23.90;45.50;;;;;;5005768;28;20084;-60
2023/04/25 06:27:47;;;;;;;0.75;0.75;;;24.00;45.60;;;;;;5000194;28;20057;-60
2023/04/25 06:30:18;;;;;;;1.73;0.65;;;24.00;45.50;;;;;;4988747;28;20413;-59
2023/04/25 06:32:45;;;;;;;0.90;0.70;;;24.00;45.50;;;;;;5003820;28;20045;-60
2023/04/25 06:35:13;;;;;;;2.75;0.85;;;24.10;45.60;;;;;;5004160;28;20077;-59
2023/04/25 06:37:40;;;;;;;1.52;0.93;;;24.10;45.60;;;;;;5002703;28;20061;-58
2023/04/25 06:40:08;;;;;;;2.85;0.68;;;24.10;45.60;;;;;;5003152;28;20056;-63
2023/04/25 06:42:36;;;;;;;5.85;1.33;;;24.20;45.60;;;;;;5004506;28;20072;-59
2023/04/25 06:45:04;;;;;;;1.00;0.95;;;24.30;45.60;;;;;;5002948;28;20466;-60
2023/04/25 06:47:31;;;;;;;1.45;0.90;;;24.30;45.60;;;;;;5004819;28;20129;-60
2023/04/25 06:49:58;;;;;;;4.32;0.85;;;24.30;45.50;;;;;;5004451;28;20049;-61
2023/04/25 06:52:25;;;;;;;4.47;0.80;;;24.40;45.60;;;;;;5002122;28;20088;-61
2023/04/25 06:54:53;;;;;;;5.10;0.93;;;24.40;45.40;;;;;;5001270;28;20085;-63
2023/04/25 06:57:20;;;;;;;3.05;1.20;;;24.40;45.30;;;;;;5002609;28;20049;-61
2023/04/25 06:59:47;;;;;;;3.17;0.85;;;24.50;45.20;;;;;;5003255;28;21073;-58
2023/04/25 07:02:15;;;;;;;3.85;0.95;;;24.50;45.10;;;;;;5018297;28;20112;-59
2023/04/25 07:04:42;;;;;;;3.10;0.80;;;24.50;45.00;;;;;;4999336;28;20070;-61
2023/04/25 07:07:09;;;;;;;1.83;0.60;;;24.60;44.90;;;;;;5001243;28;20049;-61
2023/04/25 07:09:37;;;;;;;3.20;0.98;;;24.60;44.70;;;;;;4998404;28;20465;-58
2023/04/25 07:12:04;;;;;;;3.10;0.98;;;24.60;44.60;;;;;;5000756;28;20049;-58
2023/04/25 07:14:31;;;;;;;3.35;0.70;;;24.60;44.40;;;;;;5001485;28;20096;-59
2023/04/25 07:16:58;;;;;;;4.20;0.70;;;24.60;44.30;;;;;;5000117;28;20469;-59
2023/04/25 07:19:29;;;;;;;2.45;1.10;;;24.70;44.30;;;;;;4999462;28;20041;-59
2023/04/25 07:21:56;;;;;;;3.38;0.90;;;24.60;44.20;;;;;;4998946;28;20060;-58
2023/04/25 07:24:27;;;;;;;1.10;0.90;;;24.70;44.20;;;;;;5002184;28;20057;-58
2023/04/25 07:26:54;;;;;;;;;;;24.70;44.30;;;;;;5002306;28;20049;-59
2023/04/25 07:29:21;;;;;;;4.00;0.90;;;24.70;44.40;;;;;;5001844;28;19925;-59
2023/04/25 07:31:48;;;;;;;1.73;0.85;;;24.70;44.20;;;;;;5004061;28;20057;-60
2023/04/25 07:34:15;;;;;;;1.25;0.80;;;24.80;44.10;;;;;;4999772;28;20077;-60
2023/04/25 07:36:43;;;;;;;4.05;0.75;;;24.80;44.00;;;;;;4998232;28;20080;-57
2023/04/25 07:39:11;;;;;;;2.47;0.70;;;24.80;43.80;;;;;;4997423;28;20140;-59
2023/04/25 07:41:39;;;;;;;1.10;0.70;;;24.80;43.50;;;;;;4999936;28;20525;-59
2023/04/25 07:44:06;;;;;;;0.90;0.60;;;24.80;43.50;;;;;;4999822;28;20046;-59
2023/04/25 07:46:33;;;;;;;0.73;0.70;;;24.80;43.50;;;;;;5002693;28;20059;-58
2023/04/25 07:49:01;;;;;;;1.65;0.80;;;24.80;43.60;;;;;;5003432;28;20085;-58
2023/04/25 07:51:28;;;;;;;0.82;0.80;;;24.90;43.60;;;;;;5002041;28;20078;-58
2023/04/25 07:53:55;;;;;;;0.80;0.70;;;24.80;43.40;;;;;;4999955;28;20041;-59
2023/04/25 07:56:22;;;;;;;1.27;0.70;;;24.90;43.60;;;;;;5001691;28;20046;-59
2023/04/25 07:58:49;;;;;;;3.88;0.90;;;24.90;43.50;;;;;;4997756;28;20474;-59
2023/04/25 08:01:17;;;;;;;0.57;0.50;;;24.90;43.40;;;;;;4995629;28;20131;-59
2023/04/25 08:03:44;;;;;;;3.75;1.10;;;24.90;43.40;;;;;;5002765;28;20042;-58
2023/04/25 08:06:12;;;;;;;3.60;0.75;;;24.90;43.20;;;;;;5004142;28;20050;-58
2023/04/25 08:08:40;;;;;;;3.05;1.10;;;24.90;43.40;;;;;;5000908;28;20050;-58
2023/04/25 08:11:07;;;;;;;2.05;0.80;;;24.90;43.20;;;;;;4998771;28;20049;-57
2023/04/25 08:13:35;;;;;;;2.58;0.80;;;24.90;43.30;;;;;;4983489;28;20053;-59
2023/04/25 08:16:02;;;;;;;9.60;1.00;;;24.90;43.20;;;;;;5012700;28;20447;-59
2023/04/25 08:18:30;;;;;;;2.47;0.93;;;24.90;43.00;;;;;;5000929;28;20089;-58
2023/04/25 08:20:57;;;;;;;2.28;1.02;;;24.90;37.90;;;;;;5001900;28;20160;-59
2023/04/25 08:23:24;;;;;;;1.15;0.90;;;24.90;37.70;;;;;;5002447;28;20054;-58
2023/04/25 08:25:52;;;;;;;2.53;1.17;;;24.80;38.60;;;;;;5001673;28;20054;-58
2023/04/25 08:28:19;;;;;;;2.55;1.10;;;24.80;39.20;;;;;;5002443;28;20489;-58
2023/04/25 08:30:46;;;;;;;0.95;0.90;;;24.80;39.80;;;;;;5004009;28;20104;-58
2023/04/25 08:33:13;;;;;;;1.05;0.70;;;24.80;40.20;;;;;;5000345;28;20145;-58
2023/04/25 08:35:40;;;;;;;0.93;0.60;;;24.90;40.50;;;;;;5001637;28;20417;-56
2023/04/25 08:38:08;;;;;;;0.90;0.90;;;24.90;40.70;;;;;;5004311;28;20050;-57
2023/04/25 08:40:38;;;;;;;2.03;1.05;;;24.90;41.00;;;;;;5000626;28;20140;-58
2023/04/25 08:43:11;;;;;;;1.60;0.57;;;24.90;41.10;;;;;;5002951;28;20455;-59
2023/04/25 08:45:43;;;;;;;0.50;0.50;;;24.90;41.10;;;;;;5002021;28;20053;-58
2023/04/25 08:48:12;;;;;;;1.23;0.60;;;24.90;41.20;;;;;;4999983;28;20487;-59
2023/04/25 08:50:51;;;;;;;1.73;1.05;;;24.90;41.10;;;;;;5001757;28;20077;-60
2023/04/25 08:53:25;;;;;;;0.70;0.70;;;24.90;41.10;;;;;;5001724;28;20069;-60
2023/04/25 08:55:57;;;;;;;6.13;0.80;;;25.00;41.20;;;;;;5001833;28;20050;-59
2023/04/25 08:58:24;;;;;;;2.47;1.10;;;25.00;41.20;;;;;;5004363;28;20757;-59
2023/04/25 09:00:52;;;;;;;2.25;0.98;;;25.10;41.40;;;;;;5003911;28;20054;-60
2023/04/25 09:03:20;;;;;;;3.85;0.90;;;25.10;41.30;;;;;;4997980;28;20490;-60
2023/04/25 09:05:47;;;;;;;1.05;0.82;;;25.10;41.40;;;;;;4997633;28;20384;-60
2023/04/25 09:08:14;;;;;;;0.85;0.77;;;25.10;41.30;;;;;;4998504;28;20080;-59
2023/04/25 09:10:42;;;;;;;1.40;0.75;;;25.10;40.90;;;;;;5000842;28;20726;-60
2023/04/25 09:13:12;;;;;;;2.20;1.10;;;25.10;40.60;;;;;;5000286;28;20100;-60
2023/04/25 09:15:52;;;;;;;2.20;0.65;;;25.20;40.40;;;;;;5000748;28;20494;-59
2023/04/25 09:18:31;;;;;;;2.45;1.20;;;25.20;40.40;;;;;;4997946;28;20105;-60
2023/04/25 09:21:09;;;;;;;2.65;0.75;;;25.20;40.50;;;;;;4998809;28;20139;-58
2023/04/25 09:23:45;;;;;;;1.70;1.00;;;25.30;40.70;;;;;;4998360;28;20060;-59
2023/04/25 09:26:18;;;;;;;1.88;1.00;;;25.30;40.50;;;;;;5015526;28;20141;-59
2023/04/25 09:28:47;;;;;;;5.00;0.85;;;25.30;40.10;;;;;;5002129;28;20052;-58
2023/04/25 09:31:24;;;;;;;1.23;0.75;;;25.30;39.90;;;;;;5001406;28;20095;-59
2023/04/25 09:34:00;;;;;;;2.70;0.70;;;25.30;39.90;;;;;;5001629;28;20490;-59
2023/04/25 09:36:30;;;;;;;3.17;0.80;;;25.30;39.70;;;;;;5000495;28;20038;-58
2023/04/25 09:39:00;;;;;;;3.40;1.20;;;25.30;39.60;;;;;;4998678;28;20046;-59
2023/04/25 09:41:28;;;;;;;2.58;0.80;;;25.30;39.70;;;;;;5000145;28;20060;-58
2023/04/25 09:43:58;;;;;;;2.40;0.80;;;25.30;39.60;;;;;;4994912;28;20077;-58
2023/04/25 09:46:32;;;;;;;2.72;1.17;;;25.40;39.30;;;;;;5001217;28;20037;-58
2023/04/25 09:49:07;;;;;;;4.47;0.95;;;25.40;39.30;;;;;;5000741;28;20118;-58
2023/04/25 09:51:34;;;;;;;3.90;1.00;;;25.40;39.40;;;;;;5001300;28;20103;-59
2023/04/25 09:54:03;;;;;;;2.83;1.42;;;25.40;39.40;;;;;;4999854;28;20144;-59
2023/04/25 09:56:37;;;;;;;1.55;1.25;;;25.40;39.30;;;;;;5002025;28;20046;-58
2023/04/25 09:59:06;;;;;;;1.52;0.70;;;25.40;39.50;;;;;;5000602;28;20057;-59
2023/04/25 10:01:35;;;;;;;1.55;0.50;;;25.40;39.50;;;;;;5002068;28;20050;-58
2023/04/25 10:04:05;;;;;;;3.88;1.05;;;25.40;39.50;;;;;;5001779;28;20551;-59
2023/04/25 10:06:34;;;;;;;1.67;0.65;;;25.40;39.50;;;;;;5002244;28;20046;-58
2023/04/25 10:09:03;;;;;;;1.02;0.77;;;25.40;39.50;;;;;;5001722;28;20050;-59
2023/04/25 10:11:31;;;;;;;1.02;0.70;;;25.40;39.50;;;;;;5002191;28;20050;-58
2023/04/25 10:14:00;;;;;;;3.08;1.40;;;25.50;39.70;;;;;;5002130;28;20065;-60
2023/04/25 10:16:28;;;;;;;1.42;0.88;;;25.50;39.70;;;;;;5002155;28;20080;-59
2023/04/25 10:18:56;;;;;;;5.53;1.42;;;25.60;39.60;;;;;;5001457;28;20707;-61
2023/04/25 10:21:24;;;;;;;1.85;0.88;;;25.60;39.70;;;;;;4998519;28;20058;-60
2023/04/25 10:23:52;;;;;;;3.72;1.00;;;25.70;39.60;;;;;;5001974;28;20089;-59
2023/04/25 10:26:20;;;;;;;2.05;0.85;;;25.70;39.60;;;;;;5005402;28;20103;-60
2023/04/25 10:29:01;;;;;;;1.40;0.70;;;25.70;39.60;;;;;;5005145;28;20162;-59
2023/04/25 10:31:30;;;;;;;2.22;0.90;;;25.80;39.70;;;;;;5001087;28;20461;-59
2023/04/25 10:34:00;;;;;;;3.03;1.52;;;25.80;39.80;;;;;;5004081;28;20054;-59
2023/04/25 10:36:31;;;;;;;2.60;1.27;;;25.80;40.00;;;;;;5006594;28;20058;-60
2023/04/25 10:39:09;;;;;;;1.17;0.63;;;25.80;39.40;;;;;;5004931;28;20053;-59
2023/04/25 10:41:48;;;;;;;3.47;0.90;;;25.90;38.70;;;;;;5001016;28;20054;-58
2023/04/25 10:44:15;;;;;;;0.85;0.85;;;25.90;38.20;;;;;;5004264;28;20092;-59
2023/04/25 10:46:45;;;;;;;4.65;1.13;;;25.90;37.80;;;;;;5003422;28;20060;-59
2023/04/25 10:49:33;;;;;;;1.80;1.20;;;25.90;38.30;;;;;;5001204;28;20332;-58
2023/04/25 10:52:28;;;;;;;3.70;0.82;;;26.00;37.70;;;;;;5004249;28;20052;-58
2023/04/25 10:54:57;;;;;;;1.17;0.60;;;26.00;37.20;;;;;;5004018;28;20045;-58
2023/04/25 10:57:41;;;;;;;2.35;1.23;;;26.00;36.70;;;;;;5001760;28;20054;-58
2023/04/25 11:00:15;;;;;;;1.15;1.05;;;26.00;36.70;;;;;;5002807;28;20049;-57
2023/04/25 11:02:48;;;;;;;2.88;1.17;;;26.00;36.70;;;;;;5001645;28;20050;-56
2023/04/25 11:05:22;;;;;;;0.47;0.47;;;26.00;36.70;;;;;;5005558;28;20084;-58
2023/04/25 11:07:51;;;;;;;1.55;0.77;;;26.00;36.90;;;;;;5003168;28;20058;-58
2023/04/25 11:10:36;;;;;;;4.93;0.80;;;26.00;36.90;;;;;;5001782;28;20058;-59
2023/04/25 11:13:04;;;;;;;3.75;0.80;;;26.10;36.90;;;;;;5001992;28;20056;-58
2023/04/25 11:15:32;;;;;;;1.45;0.82;;;26.00;36.70;;;;;;5002461;28;20053;-59
2023/04/25 11:17:59;;;;;;;1.77;0.82;;;26.00;36.90;;;;;;5003756;28;20120;-59
2023/04/25 11:20:28;;;;;;;0.82;0.75;;;26.00;36.50;;;;;;5004170;28;20486;-59
2023/04/25 11:22:59;;;;;;;2.58;0.90;;;26.10;36.20;;;;;;4998744;28;20054;-59
2023/04/25 11:25:27;;;;;;;0.68;0.60;;;26.10;36.00;;;;;;5006336;28;20041;-59
2023/04/25 11:27:57;;;;;;;1.15;0.70;;;26.10;35.70;;;;;;5001938;28;20049;-58
2023/04/25 11:30:26;;;;;;;0.80;0.80;;;26.10;35.20;;;;;;5002423;28;20046;-59
2023/04/25 11:32:53;;;;;;;1.10;0.80;;;26.10;34.80;;;;;;4997680;28;20136;-58
2023/04/25 11:35:22;;;;;;;2.28;0.95;;;26.10;34.80;;;;;;5003462;28;20064;-59
2023/04/25 11:37:50;;;;;;;0.40;0.40;;;26.10;34.80;;;;;;5001954;28;20077;-58
2023/04/25 11:40:17;;;;;;;1.05;0.80;;;26.10;34.40;;;;;;5003612;28;20053;-59
2023/04/25 11:42:46;;;;;;;0.93;0.60;;;26.10;34.10;;;;;;5002260;28;20049;-58
2023/04/25 11:45:14;;;;;;;2.47;0.90;;;26.10;33.90;;;;;;5003644;28;20070;-57
2023/04/25 11:47:42;;;;;;;0.98;0.90;;;26.10;33.00;;;;;;5000782;28;20046;-58
2023/04/25 11:50:09;;;;;;;1.38;0.75;;;26.00;30.00;;;;;;5003242;28;20117;-57
2023/04/25 11:52:39;;;;;;;1.75;0.85;;;25.80;30.00;;;;;;5000850;28;20057;-58
2023/04/25 11:55:14;;;;;;;1.75;0.70;;;25.70;31.10;;;;;;5001349;28;20038;-57
2023/04/25 11:57:44;;;;;;;0.73;0.70;;;25.70;31.90;;;;;;5002225;28;20045;-58
2023/04/25 12:00:16;;;;;;;1.30;0.82;;;25.70;32.20;;;;;;5004247;28;20078;-59
2023/04/25 12:02:47;;;;;;;0.60;0.60;;;25.70;32.70;;;;;;5001752;28;20050;-58
2023/04/25 12:05:16;;;;;;;2.03;0.80;;;25.70;33.00;;;;;;5016202;28;20140;-59
2023/04/25 12:07:58;;;;;;;1.25;0.90;;;25.80;33.80;;;;;;5004387;28;20501;-59
2023/04/25 12:10:25;;;;;;;0.70;0.50;;;25.80;34.10;;;;;;5002379;28;20133;-59
2023/04/25 12:12:53;;;;;;;0.70;0.60;;;25.80;34.40;;;;;;5003712;28;20044;-59
2023/04/25 12:15:25;;;;;;;0.60;0.60;;;25.90;34.60;;;;;;5002813;28;20090;-59
2023/04/25 12:17:54;;;;;;;0.80;0.70;;;25.90;34.90;;;;;;5000671;28;20070;-58
2023/04/25 12:20:25;;;;;;;0.77;0.68;;;26.00;35.10;;;;;;5002790;28;20054;-58
2023/04/25 12:22:53;;;;;;;3.40;0.80;;;26.00;35.20;;;;;;5003665;28;20069;-58
2023/04/25 12:25:41;;;;;;;0.40;0.40;;;26.10;35.30;;;;;;4999314;28;20042;-58
2023/04/25 12:28:21;;;;;;;1.13;0.40;;;26.10;35.70;;;;;;4998226;28;20050;-58
2023/04/25 12:31:00;;;;;;;0.80;0.50;;;26.20;35.70;;;;;;5002758;28;20062;-58
2023/04/25 12:33:30;;;;;;;2.15;0.60;;;26.20;35.70;;;;;;5003064;28;20060;-59
2023/04/25 12:35:58;;;;;;;1.30;0.60;;;26.20;35.80;;;;;;5001931;28;20061;-59
2023/04/25 12:38:30;;;;;;;1.73;0.60;;;26.20;35.80;;;;;;5001150;28;20314;-59
2023/04/25 12:40:58;;;;;;;1.05;0.70;;;26.20;36.00;;;;;;5002855;28;20046;-58
2023/04/25 12:43:25;;;;;;;0.50;0.50;;;26.20;36.10;;;;;;5001826;28;20590;-59
2023/04/25 12:45:54;;;;;;;0.77;0.50;;;26.20;36.50;;;;;;4999456;28;20136;-58
2023/04/25 12:48:22;;;;;;;0.82;0.63;;;26.20;36.40;;;;;;4995620;28;20453;-59
2023/04/25 12:50:51;;;;;;;3.08;0.80;;;26.30;36.20;;;;;;4993602;28;20695;-59
2023/04/25 12:53:20;;;;;;;0.50;0.50;;;26.20;36.10;;;;;;4991631;28;20049;-59
2023/04/25 12:55:48;;;;;;;2.10;0.82;;;26.20;36.20;;;;;;4996694;28;20053;-60